KMEM

Memphis International Airport

Code ICAO KMEM
Code IATA MEM
Nom Memphis International Airport
Emplacement Memphis, Tennessee, US
Élévation 341 pieds / 103.9 mètres
Latitude 35.04240036
Longitude -89.97669983
METAR KMEM 210954Z 22009KT 10SM FEW250 26/22 A2982 RMK AO2 SLP092 T02560222
Informations extras Afficher cartes et CFS
Afficher NOTAMS
Piste Longueur Largeur Surface Élévation
09 8946 ft 150 ft ASP 253 ft
18C 11120 ft 150 ft CON 271 ft
18L 9000 ft 150 ft CON 278 ft
18R 9320 ft 150 ft CON 288 ft
27 8946 ft 150 ft ASP 292 ft
36C 11120 ft 150 ft CON 341 ft
36R 9000 ft 150 ft CON 335 ft
36L 9320 ft 150 ft CON 321 ft